St. George, Utah Weather observations

Data are for observation ending at time listed.
 Day   Time    Ave.   Ave.  Ave.  Vector   Max.   Stn.    Total    Solar   Ave.  
  of    of     Air    Rel.  Wind   Wind    Wind   Baro.  Precip.   Rad.    Soil  
Year   Day     Temp.  Hum.  Speed  Dir.    Gust   Pres.                    Temp. 
2014   (MST)    F      %     mph   deg.    mph     mb.     in.     W/m2     F   
------------------------------------------------------------------------------
 326   10:20   45.7    44    2.1   235      4.0   923.8    0.00     252    52.6
 326   10:30   46.1    42    2.1   211      3.9   923.8    0.00     233    52.6
 326   10:40   46.7    41    2.7   218      5.0   923.7    0.00     338    52.6
 326   10:50   47.8    39    1.9   205      3.8   923.5    0.00     378    52.6
 326   11:00   48.4    38    2.6   186      4.5   923.3    0.00     295    52.6
 326   11:10   50.2    37    1.8   147      4.6   923.0    0.00     269    52.6
 326   11:20   50.0    36    2.1   191      3.9   922.8    0.00     227    52.6
 326   11:30   50.5    35    1.8   201      4.1   922.5    0.00     312    52.7
 326   11:40   51.0    34    2.0   190      5.1   922.4    0.00     270    52.7
 326   11:50   52.5    32    1.2   181      3.5   922.2    0.00     509    52.8
 326   12:00   53.3    31    1.8   185      3.7   922.1    0.00     516    52.9
 326   12:10   53.8    30    2.3   200      5.6   921.7    0.00     567    53.0
 326   12:20   54.7    30    1.6   204      3.1   921.4    0.00     689    53.1
 326   12:30   56.3    29    1.4   175      4.2   921.0    0.00     570    53.2
 326   12:40   55.9    29    1.8   148      4.8   920.8    0.00     436    53.3
 326   12:50   55.7    29    2.9   193      6.7   920.8    0.00     502    53.4
 326   13:00   55.8    29    3.3   179      7.0   920.1    0.00     440    53.5
 326   13:10   55.6    29    2.6   156      5.8   919.7    0.00     351    53.7
 326   13:20   55.9    28    2.3   192      5.5   919.9    0.00     549    53.8
 326   13:30   58.1    27    1.3   153      4.2   920.0    0.00     559    54.0
 326   13:40   57.6    27    1.8   213      4.5   919.8    0.00     485    54.1
 326   13:50   59.2    26    1.8   164      5.2   919.3    0.00     556    54.3
 326   14:00   60.0    26    1.2   160      3.7   919.2    0.00     528    54.5
 326   14:10   61.1    24    0.7   260      3.1   919.3    0.00     530    54.6
 326   14:20   61.3    24    1.4   188      3.8   919.2    0.00     414    54.8
 326   14:30   61.1    26    1.4   164      3.4   918.9    0.00     367    55.0
 326   14:40   59.1    26    2.2   201      4.5   918.9    0.00     234    55.2
 326   14:50   58.9    26    3.2   185      6.9   918.4    0.00     310    55.4
 326   15:00   59.6    26    2.0   178      4.5   918.4    0.00     333    55.6
 326   15:10   60.0    25    2.3   184      4.2   918.1    0.00     377    55.7
 326   15:20   61.2    24    1.3   220      2.7   918.1    0.00     342    55.9
 326   15:30   62.3    24    1.6   172      5.0   917.9    0.00     333    56.0
 326   15:40   63.3    24    1.5   146      4.0   917.8    0.00     319    56.2
 326   15:50   63.8    23    1.0   153      2.9   917.8    0.00     294    56.4
 326   16:00   64.0    23    0.4   152      2.9   917.7    0.00     244    56.5
 326   16:10   65.1    22    0.7   138      2.0   917.6    0.00     236    56.7
 326   16:20   64.2    22    1.1   204      3.4   917.5    0.00     216    56.8
 326   16:30   63.8    23    1.3   189      3.0   917.5    0.00     193    57.0
 326   16:40   63.0    24    1.5   189      2.9   917.4    0.00     173    57.1
 326   16:50   62.5    24    1.5   232      3.3   917.4    0.00     144    57.2
 326   17:00   62.0    24    2.0   204      3.8   917.2    0.00      94    57.3
 326   17:10   61.5    25    1.6   217      2.3   917.2    0.00      60    57.4
 326   17:20   60.0    27    0.5   227      1.9   917.2    0.00      16    57.5
 326   17:30   58.2    29    0.6   241      1.6   917.0    0.00       8    57.6
 326   17:40   56.6    32    0.5   358      1.3   916.9    0.00       2    57.7
 326   17:50   55.5    34    1.0   353      2.9   916.8    0.00       0    57.7
 326   18:00   55.3    33    0.8   355      2.2   916.6    0.00       0    57.7
 326   18:10   54.4    34    0.9   354      1.9   916.5    0.00       0    57.8
 326   18:20   54.3    34    0.6   342      1.9   916.6    0.00       0    57.8
 326   18:30   53.9    35    1.2   354      2.6   916.6    0.00       0    57.7
 326   18:40   53.2    36    0.3   328      1.8   916.5    0.00       0    57.7
 326   18:50   52.9    36    1.7   359      2.7   916.6    0.00       0    57.7
 326   19:00   53.5    34    0.9    45      3.4   916.6    0.00       0    57.7
 326   19:10   52.9    36    1.0   211      3.3   916.5    0.00       0    57.7
 326   19:20   52.0    38    1.4   221      3.7   916.5    0.00       0    57.7
 326   19:30   50.9    40    1.2   229      3.0   916.5    0.00       0    57.6
 326   19:40   50.6    41    1.0   304      2.0   916.5    0.00       0    57.6
 326   19:50   50.1    42    1.4     1      3.4   916.7    0.00       0    57.5
 326   20:00   50.2    42    1.6   353      2.8   916.8    0.00       0    57.5
 326   20:10   50.7    40    1.4   352      2.9   916.7    0.00       0    57.5
 326   20:20   50.1    42    0.7   249      2.8   916.6    0.00       0    57.4
 326   20:30   49.5    44    1.4    52      4.4   916.6    0.00       0    57.3
 326   20:40   50.0    42    0.9    52      2.6   916.6    0.00       0    57.3
 326   20:50   49.4    44    1.1   225      2.6   916.6    0.00       0    57.2
 326   21:00   48.6    45    1.1   246      3.4   916.6    0.00       0    57.2
 326   21:10   48.1    46    0.6   198      2.2   916.7    0.00       0    57.1
 326   21:20   48.0    47    0.7    63      1.9   916.7    0.00       0    57.1
 326   21:30   47.9    48    1.4   278      4.5   916.8    0.00       0    57.0
 326   21:40   47.4    48    1.9   286      4.3   916.9    0.00       0    57.0
 326   21:50   47.3    48    2.0   272      3.9   917.1    0.00       0    56.9
 326   22:00   47.1    48    2.0   312      6.0   917.2    0.00       0    56.8
 326   22:10   47.9    46    2.4   244      5.4   917.1    0.00       0    56.8
 326   22:20   46.9    48    1.6    26      3.1   917.1    0.00       0    56.7
 326   22:30   46.5    49    1.8   205      4.4   917.3    0.00       0    56.7
 326   22:40   45.8    51    1.8   155      4.6   917.5    0.00       0    56.6
 326   22:50   45.6    52    1.3   316      2.8   917.7    0.00       0    56.5
 326   23:00   44.9    53    2.4   172      4.8   917.7    0.00       0    56.5
 326   23:10   44.8    53    2.2   288      6.6   917.9    0.00       0    56.4
 326   23:20   45.1    52    1.6   348      4.4   918.0    0.00       0    56.4
 326   23:30   45.1    53    2.6    78      5.0   918.2    0.00       0    56.3
 326   23:40   46.3    50    1.8    71      4.7   918.3    0.00       0    56.2
 326   23:50   45.6    52    1.6   288      4.6   918.5    0.00       0    56.1
 327    0:00   44.9    53    1.5   260      3.1   918.7    0.00       0    56.1
 327    0:10   44.5    54    1.0   216      3.5   918.8    0.00       0    56.0
 327    0:20   46.8    51    2.8   342      8.9   918.8    0.00       0    55.9
 327    0:30   55.4    37    6.2   345     16.0   918.8    0.00       0    55.9
 327    0:40   56.3    35    5.5   334     11.5   918.8    0.00       0    55.8
 327    0:50   56.3    35    5.2   344     11.8   919.0    0.00       0    55.7
 327    1:00   55.8    36    2.9   295      7.6   919.2    0.00       0    55.7
 327    1:10   55.1    37    4.3   300      9.7   919.2    0.00       0    55.6
 327    1:20   54.5    38    3.7   300      8.9   919.2    0.00       0    55.6
 327    1:30   54.1    38    4.0   296      8.2   919.2    0.00       0    55.6
 327    1:40   54.0    36    3.4   300      8.2   919.4    0.00       0    55.6
 327    1:50   53.9    36    3.9   305      9.1   919.6    0.00       0    55.5
 327    2:00   53.9    35    5.0   304     11.8   919.8    0.00       0    55.5
 327    2:10   54.0    34    4.7   306     11.0   920.0    0.00       0    55.4
 327    2:20   53.6    35    4.8   305     10.9   920.2    0.00       0    55.4
 327    2:30   53.5    34    4.1   312      9.3   920.4    0.00       0    55.4
 327    2:40   53.5    34    3.2   279      8.8   920.5    0.00       0    55.3
 327    2:50   53.1    34    4.1   290     10.7   920.8    0.00       0    55.3
 327    3:00   53.0    33    4.3   316     15.3   921.0    0.00       0    55.3
 327    3:10   52.8    32    6.4   322     17.0   921.3    0.00       0    55.2
 327    3:20   53.1    27    9.1   328     21.4   921.4    0.00       0    55.2
 327    3:30   52.9    27    8.4   331     18.2   921.5    0.00       0    55.2
 327    3:40   52.4    26    8.6   334     16.1   921.7    0.00       0    55.1
 327    3:50   52.2    26    8.2   340     17.0   922.0    0.00       0    55.1
 327    4:00   51.9    25    7.7   338     18.0   922.2    0.00       0    55.1
 327    4:10   51.1    26    6.8   338     13.4   922.3    0.00       0    55.0
 327    4:20   50.5    26    7.3   343     14.4   922.6    0.00       0    55.0
 327    4:30   50.2    26    7.3   342     13.8   922.7    0.00       0    55.0
 327    4:40   50.2    26    8.2   337     16.1   923.0    0.00       0    55.0
 327    4:50   49.7    26    7.4   339     14.4   923.4    0.00       0    54.9
 327    5:00   49.4    27    8.1   335     14.2   923.6    0.00       0    54.9
 327    5:10   49.2    27    6.5   310     15.3   923.3    0.00       0    54.8
 327    5:20   49.1    27    7.8   308     20.2   923.4    0.00       0    54.8
 327    5:30   49.1    27    7.5   314     19.7   923.5    0.00       0    54.8
 327    5:40   48.8    28    7.1   324     15.9   923.7    0.00       0    54.7
 327    5:50   48.7    28    6.4   320     16.1   924.0    0.00       0    54.7
 327    6:00   48.4    28    4.8   321     11.7   924.2    0.00       0    54.6
 327    6:10   48.4    28    5.5   318     13.9   924.4    0.00       0    54.6
 327    6:20   48.4    28    4.4   318     12.7   924.8    0.00       0    54.6
 327    6:30   48.0    29    3.6   336      8.6   925.0    0.00       0    54.5
 327    6:40   47.5    30    3.7   345      8.0   925.1    0.00       0    54.5
 327    6:50   47.0    31    3.8   356      7.2   925.2    0.00       0    54.4
 327    7:00   46.8    31    4.5   341      9.2   925.3    0.00       0    54.4
 327    7:10   47.1    31    4.7   334     12.4   925.2    0.00       0    54.4
 327    7:20   46.9    32    5.5   319     15.6   925.3    0.00       2    54.3
 327    7:30   47.1    32    6.2   326     12.9   925.6    0.00       4    54.2
 327    7:40   47.0    32    4.7   332     11.0   925.9    0.00       9    54.2
 327    7:50   46.7    32    4.5   333      9.9   926.2    0.00      12    54.2
 327    8:00   46.6    32    3.4   334      7.4   926.5    0.00      38    54.1
 327    8:10   46.6    33    1.6   310      2.9   926.8    0.00     103    54.1
 327    8:20   46.9    34    2.0   328      3.8   927.0    0.00     135    54.0
 327    8:30   47.3    33    1.9   337      4.4   927.3    0.00     157    54.0
 327    8:40   47.6    32    2.7   334      7.8   927.4    0.00      75    54.0
 327    8:50   48.4    30    4.8   332      9.6   927.5    0.00     151    54.0
 327    9:00   48.9    29    4.9   332     11.2   927.8    0.00     259    54.0
 327    9:10   49.4    28    3.4   329      6.4   928.2    0.00     287    53.9
 327    9:20   49.6    28    2.5    21      6.6   928.3    0.00     312    54.0
 327    9:30   49.9    27    1.9   300      4.8   928.4    0.00     350    54.0
 327    9:40   50.5    26    2.7   300      9.1   928.5    0.00     376    54.0
 327    9:50   50.8    26    4.2   318     10.2   928.7    0.00     404    54.0
 327   10:00   51.0    26    4.9   315     12.4   928.7    0.00     431    53.9
 327   10:10   51.4    25    4.6   313     11.2   928.7    0.00     456    53.9

Return to St. George, Utah graphs page.


Western Regional Climate Center,wrcc@dri.edu